createdAt,value
2018-05-27T00:01:08.438Z,64.60
2018-05-27T00:05:01.589Z,65.10
2018-05-27T00:08:54.953Z,65.30
2018-05-27T00:12:48.132Z,65.80
2018-05-27T00:16:41.274Z,65.70
2018-05-27T00:20:34.438Z,65.80
2018-05-27T00:24:27.575Z,66.20
2018-05-27T00:28:21.010Z,66.30
2018-05-27T00:32:14.120Z,66.10
2018-05-27T00:36:07.298Z,66.20
2018-05-27T00:40:00.451Z,67.00
2018-05-27T00:43:54.668Z,67.60
2018-05-27T00:47:48.170Z,67.60
2018-05-27T00:51:41.384Z,68.10
2018-05-27T00:55:35.281Z,68.60
2018-05-27T00:59:30.092Z,68.60
2018-05-27T01:03:23.295Z,68.20
2018-05-27T01:07:16.579Z,68.60
2018-05-27T01:11:09.750Z,68.60
2018-05-27T01:15:03.020Z,68.70
2018-05-27T01:18:56.192Z,68.90
2018-05-27T01:22:49.351Z,69.70
2018-05-27T01:26:43.343Z,70.50
2018-05-27T01:30:36.502Z,70.50
2018-05-27T01:34:31.817Z,71.20
2018-05-27T01:38:25.816Z,71.80
2018-05-27T01:42:19.015Z,71.80
2018-05-27T01:46:12.440Z,72.30
2018-05-27T01:50:06.414Z,72.70
2018-05-27T01:53:59.362Z,72.70
2018-05-27T01:57:53.177Z,72.80
2018-05-27T02:01:46.291Z,72.60
2018-05-27T02:05:39.528Z,73.00
2018-05-27T02:09:32.654Z,72.90
2018-05-27T02:13:26.191Z,72.70
2018-05-27T02:17:19.911Z,73.10
2018-05-27T02:21:13.971Z,73.70
2018-05-27T02:25:07.184Z,73.60
2018-05-27T02:29:00.342Z,73.90
2018-05-27T02:32:56.358Z,75.40
2018-05-27T02:36:50.584Z,74.30
2018-05-27T02:40:45.040Z,75.20
2018-05-27T02:44:38.281Z,75.20
2018-05-27T02:48:31.411Z,75.20
2018-05-27T02:52:24.584Z,75.50
2018-05-27T02:56:18.343Z,76.40
2018-05-27T03:00:11.636Z,76.30
2018-05-27T03:04:04.751Z,76.40
2018-05-27T03:07:58.670Z,77.40
2018-05-27T03:11:51.083Z,77.40
2018-05-27T03:15:44.269Z,78.10
2018-05-27T03:19:38.138Z,79.10
2018-05-27T03:23:32.103Z,78.80
2018-05-27T03:27:25.277Z,78.70
2018-05-27T03:31:19.173Z,78.40
2018-05-27T03:35:13.101Z,78.40
2018-05-27T03:39:06.243Z,78.30
2018-05-27T03:42:59.372Z,78.50
2018-05-27T03:46:52.544Z,78.70
2018-05-27T03:50:46.416Z,79.30
2018-05-27T03:54:39.311Z,79.20
2018-05-27T03:58:31.931Z,79.40
2018-05-27T04:02:25.817Z,79.70
2018-05-27T04:06:30.709Z,79.60
2018-05-27T04:10:23.812Z,79.80
2018-05-27T04:14:20.402Z,79.20
2018-05-27T04:18:14.242Z,79.20
2018-05-27T04:22:07.397Z,79.10
2018-05-27T04:26:00.625Z,78.90
2018-05-27T04:29:53.907Z,78.70
2018-05-27T04:33:47.029Z,78.60
2018-05-27T04:37:40.222Z,78.30
2018-05-27T04:41:33.594Z,77.00
2018-05-27T04:45:26.750Z,72.50
2018-05-27T04:49:19.905Z,69.00
2018-05-27T04:53:13.155Z,67.50
2018-05-27T04:57:06.304Z,65.70
2018-05-27T05:01:00.239Z,65.50
2018-05-27T05:04:53.406Z,65.40
2018-05-27T05:08:46.566Z,67.20
2018-05-27T05:12:39.739Z,69.90
2018-05-27T05:16:32.897Z,70.90
2018-05-27T05:20:26.085Z,72.00
2018-05-27T05:24:19.231Z,71.80
2018-05-27T05:28:12.681Z,72.30
2018-05-27T05:32:05.907Z,72.10
2018-05-27T05:36:00.764Z,71.00
2018-05-27T05:39:53.945Z,70.90
2018-05-27T05:43:47.996Z,70.10
2018-05-27T05:47:41.235Z,70.10
2018-05-27T05:51:34.396Z,69.70
2018-05-27T05:55:27.453Z,69.40
2018-05-27T05:59:20.767Z,68.90
2018-05-27T06:03:13.882Z,67.90
2018-05-27T06:07:07.682Z,67.60
2018-05-27T06:11:02.499Z,67.20
2018-05-27T06:14:55.687Z,67.20
2018-05-27T06:18:48.901Z,67.00
2018-05-27T06:22:43.017Z,66.30
2018-05-27T06:26:36.310Z,66.70
2018-05-27T06:30:30.027Z,66.50
2018-05-27T06:34:23.243Z,66.60
2018-05-27T06:38:16.744Z,66.70
2018-05-27T06:42:10.072Z,64.80
2018-05-27T06:46:05.288Z,64.00
2018-05-27T06:49:59.691Z,64.00
2018-05-27T06:53:52.858Z,64.90
2018-05-27T06:57:46.059Z,63.30
2018-05-27T07:01:39.213Z,62.80
2018-05-27T07:05:32.461Z,62.00
2018-05-27T07:09:25.680Z,61.10
2018-05-27T07:13:18.837Z,61.10
2018-05-27T07:17:11.977Z,61.40
2018-05-27T07:21:05.209Z,60.80
2018-05-27T07:24:58.331Z,60.30
2018-05-27T07:28:52.335Z,60.70
2018-05-27T07:32:46.245Z,60.90
2018-05-27T07:36:39.416Z,60.90
2018-05-27T07:40:32.917Z,60.40
2018-05-27T07:44:26.058Z,61.10
2018-05-27T07:48:20.805Z,60.30
2018-05-27T07:52:13.959Z,60.30
2018-05-27T07:56:10.419Z,60.00
2018-05-27T08:00:04.034Z,60.00
2018-05-27T08:03:59.094Z,59.90
2018-05-27T08:07:52.275Z,59.20
2018-05-27T08:11:45.623Z,59.90
2018-05-27T08:15:45.580Z,58.90
2018-05-27T08:19:38.833Z,58.30
2018-05-27T08:23:31.934Z,56.90
2018-05-27T08:27:25.071Z,56.40
2018-05-27T08:31:18.270Z,56.70
2018-05-27T08:35:11.541Z,56.30
2018-05-27T08:39:04.805Z,55.90
2018-05-27T08:42:58.061Z,55.90
2018-05-27T08:46:51.297Z,55.40
2018-05-27T08:50:45.313Z,54.80
2018-05-27T08:54:40.226Z,54.80
2018-05-27T08:58:34.052Z,54.70
2018-05-27T09:02:27.142Z,54.60
2018-05-27T09:06:20.432Z,54.30
2018-05-27T09:10:13.594Z,54.00
2018-05-27T09:14:06.775Z,53.30
2018-05-27T09:18:00.519Z,53.20
2018-05-27T09:21:53.673Z,53.60
2018-05-27T09:25:46.842Z,53.30
2018-05-27T09:29:39.939Z,52.40
2018-05-27T09:33:33.072Z,51.40
2018-05-27T09:37:26.191Z,51.00
2018-05-27T09:41:19.407Z,50.40
2018-05-27T09:45:13.445Z,49.40
2018-05-27T09:49:07.391Z,48.40
2018-05-27T09:53:00.605Z,48.30
2018-05-27T09:56:53.500Z,48.50
2018-05-27T10:00:46.737Z,45.80
2018-05-27T10:04:39.949Z,45.60
2018-05-27T10:08:33.140Z,45.20
2018-05-27T10:12:27.083Z,46.00
2018-05-27T10:16:23.702Z,46.30
2018-05-27T10:20:16.939Z,46.60
2018-05-27T10:24:11.005Z,46.50
2018-05-27T10:28:04.187Z,44.60
2018-05-27T10:31:57.334Z,45.00
2018-05-27T10:35:50.480Z,44.10
2018-05-27T10:39:43.687Z,44.50
2018-05-27T10:43:37.370Z,42.80
2018-05-27T10:47:30.532Z,42.60
2018-05-27T10:51:23.651Z,42.90
2018-05-27T10:55:16.627Z,44.90
2018-05-27T10:59:09.836Z,45.30
2018-05-27T11:03:03.039Z,43.80
2018-05-27T11:06:56.922Z,43.00
2018-05-27T11:10:52.372Z,41.20
2018-05-27T11:14:45.492Z,41.20
2018-05-27T11:18:39.929Z,40.00
2018-05-27T11:22:33.189Z,40.70
2018-05-27T11:26:26.761Z,42.20
2018-05-27T11:30:20.766Z,39.20
2018-05-27T11:34:13.929Z,39.20
2018-05-27T11:38:07.054Z,39.10
2018-05-27T11:42:01.107Z,40.30
2018-05-27T11:45:54.243Z,40.20
2018-05-27T11:49:47.446Z,40.90
2018-05-27T11:53:40.957Z,40.10
2018-05-27T11:57:34.912Z,40.20
2018-05-27T12:01:28.264Z,40.20
2018-05-27T12:05:21.376Z,40.20
2018-05-27T12:09:15.416Z,40.20
2018-05-27T12:13:08.497Z,40.20
2018-05-27T12:17:01.634Z,40.20
2018-05-27T12:20:54.731Z,38.90
2018-05-27T12:24:47.878Z,39.40
2018-05-27T12:28:41.036Z,40.70
2018-05-27T12:32:34.130Z,42.10
2018-05-27T12:36:27.236Z,42.60
2018-05-27T12:40:20.692Z,44.10
2018-05-27T12:44:13.911Z,46.10
2018-05-27T12:48:07.045Z,46.30
2018-05-27T12:52:00.245Z,47.40
2018-05-27T12:55:53.904Z,50.90
2018-05-27T12:59:47.094Z,50.80
2018-05-27T13:03:40.350Z,52.40
2018-05-27T13:07:33.530Z,53.60
2018-05-27T13:11:26.704Z,54.40
2018-05-27T13:15:19.936Z,55.70
2018-05-27T13:19:13.042Z,55.80
2018-05-27T13:23:06.921Z,63.30
2018-05-27T13:27:00.869Z,66.90
2018-05-27T13:30:54.076Z,66.80
2018-05-27T13:34:47.211Z,69.80
2018-05-27T13:38:40.341Z,71.20
2018-05-27T13:42:33.467Z,71.30
2018-05-27T13:46:26.584Z,69.30
2018-05-27T13:50:19.695Z,68.00
2018-05-27T13:54:12.091Z,65.80
2018-05-27T13:58:05.204Z,66.60
2018-05-27T14:01:59.102Z,75.80
2018-05-27T14:05:52.465Z,75.80
2018-05-27T14:09:45.613Z,72.00
2018-05-27T14:13:38.750Z,69.90
2018-05-27T14:17:31.907Z,69.90
2018-05-27T14:21:25.075Z,68.80
2018-05-27T14:25:18.357Z,65.10
2018-05-27T14:29:11.501Z,64.90
2018-05-27T14:33:04.667Z,65.00
2018-05-27T14:36:57.871Z,63.70
2018-05-27T14:40:51.005Z,62.80
2018-05-27T14:44:44.174Z,61.60
2018-05-27T14:48:37.264Z,58.90
2018-05-27T14:52:30.571Z,60.30
2018-05-27T14:56:23.710Z,60.00
2018-05-27T15:00:16.742Z,62.10
2018-05-27T15:04:09.950Z,62.80
2018-05-27T15:08:04.457Z,63.80
2018-05-27T15:11:57.719Z,63.70
2018-05-27T15:15:50.896Z,62.90
2018-05-27T15:19:44.096Z,62.20
2018-05-27T15:23:37.204Z,62.10
2018-05-27T15:27:30.829Z,61.40
2018-05-27T15:31:24.753Z,60.60
2018-05-27T15:35:18.676Z,61.50
2018-05-27T15:39:11.812Z,61.50
2018-05-27T15:43:05.749Z,66.40
2018-05-27T15:46:58.959Z,66.40
2018-05-27T15:50:52.096Z,67.80
2018-05-27T15:54:45.027Z,68.20
2018-05-27T15:58:38.227Z,72.10
2018-05-27T16:02:31.336Z,76.90
2018-05-27T16:06:24.514Z,77.80
2018-05-27T16:10:18.124Z,95.70
2018-05-27T16:14:11.242Z,99.90
2018-05-27T16:18:05.214Z,99.90
2018-05-27T16:21:58.396Z,99.90
2018-05-27T16:25:51.528Z,99.90
2018-05-27T16:29:45.553Z,99.90
2018-05-27T16:33:38.679Z,99.90
2018-05-27T16:37:32.627Z,99.90
2018-05-27T16:41:25.754Z,99.90
2018-05-27T16:49:18.499Z,99.90
2018-05-27T16:53:11.850Z,99.90
2018-05-27T16:57:05.488Z,99.90
2018-05-27T17:00:58.695Z,99.90
2018-05-27T17:04:52.718Z,99.90
2018-05-27T17:08:46.009Z,99.90
2018-05-27T17:12:39.166Z,99.90
2018-05-27T17:16:32.460Z,99.90
2018-05-27T17:20:25.578Z,99.90
2018-05-27T17:24:19.686Z,99.90
2018-05-27T17:28:12.878Z,99.90
2018-05-27T17:32:06.029Z,99.90
2018-05-27T17:35:59.212Z,99.90
2018-05-27T17:39:52.325Z,99.90
2018-05-27T17:43:45.446Z,99.90
2018-05-27T17:47:38.619Z,99.90
2018-05-27T17:51:32.536Z,99.90
2018-05-27T17:55:25.466Z,99.90
2018-05-27T17:59:18.634Z,99.90
2018-05-27T18:03:11.807Z,99.90
2018-05-27T18:07:05.701Z,99.80
2018-05-27T18:10:58.935Z,99.80
2018-05-27T18:14:52.211Z,99.90
2018-05-27T18:18:46.104Z,95.90
2018-05-27T18:22:39.263Z,95.80
2018-05-27T18:26:34.203Z,94.80
2018-05-27T18:30:27.360Z,94.80
2018-05-27T18:34:20.641Z,93.40
2018-05-27T18:38:14.240Z,93.70
2018-05-27T18:42:07.374Z,93.70
2018-05-27T18:46:00.465Z,93.00
2018-05-27T18:49:53.570Z,93.00
2018-05-27T18:53:47.478Z,94.20
2018-05-27T18:57:41.324Z,92.00
2018-05-27T19:01:35.284Z,90.80
2018-05-27T19:05:28.449Z,90.80
2018-05-27T19:09:21.792Z,90.40
2018-05-27T19:13:16.386Z,90.50
2018-05-27T19:17:11.470Z,92.00
2018-05-27T19:21:04.611Z,92.00
2018-05-27T19:24:58.480Z,92.40
2018-05-27T19:28:52.055Z,92.70
2018-05-27T19:32:45.308Z,93.30
2018-05-27T19:36:38.490Z,93.80
2018-05-27T19:40:32.387Z,93.20
2018-05-27T19:44:25.506Z,93.10
2018-05-27T19:48:18.683Z,93.30
2018-05-27T19:52:11.906Z,93.80
2018-05-27T19:56:04.806Z,94.30
2018-05-27T19:59:57.955Z,94.50
2018-05-27T20:03:51.208Z,94.70
2018-05-27T20:07:44.316Z,94.90
2018-05-27T20:11:37.455Z,95.00
2018-05-27T20:15:31.580Z,95.40
2018-05-27T20:19:24.943Z,95.30
2018-05-27T20:23:19.119Z,95.50
2018-05-27T20:27:13.154Z,95.70
2018-05-27T20:31:07.054Z,96.10
2018-05-27T20:35:00.237Z,96.10
2018-05-27T20:38:53.492Z,96.00
2018-05-27T20:42:46.694Z,96.20
2018-05-27T20:46:39.842Z,94.90
2018-05-27T20:50:33.499Z,95.20
2018-05-27T20:54:26.719Z,94.90
2018-05-27T20:58:23.365Z,94.80
2018-05-27T21:02:16.732Z,93.90
2018-05-27T21:06:09.901Z,94.00
2018-05-27T21:10:03.920Z,93.10
2018-05-27T21:13:57.162Z,93.10
2018-05-27T21:17:51.211Z,94.10
2018-05-27T21:21:44.320Z,94.00
2018-05-27T21:25:38.202Z,93.70
2018-05-27T21:29:31.304Z,93.60
2018-05-27T21:33:25.280Z,93.80
2018-05-27T21:37:18.384Z,93.80
2018-05-27T21:41:11.611Z,94.20
2018-05-27T21:45:04.712Z,94.70
2018-05-27T21:48:57.897Z,95.40
2018-05-27T21:52:51.842Z,96.30
2018-05-27T21:56:44.945Z,96.20
2018-05-27T22:00:37.840Z,96.50
2018-05-27T22:04:30.972Z,96.50
2018-05-27T22:08:24.101Z,96.60
2018-05-27T22:12:17.281Z,96.60
2018-05-27T22:16:10.527Z,97.20
2018-05-27T22:20:03.651Z,97.40
2018-05-27T22:23:56.771Z,98.30
2018-05-27T22:27:49.912Z,98.30
2018-05-27T22:31:43.003Z,98.10
2018-05-27T22:35:36.971Z,98.10
2018-05-27T22:39:30.134Z,98.10
2018-05-27T22:43:23.252Z,98.50
2018-05-27T22:47:16.375Z,98.80
2018-05-27T22:51:09.485Z,99.20
2018-05-27T22:55:02.379Z,99.20
2018-05-27T22:58:55.504Z,99.40
2018-05-27T23:02:48.631Z,99.60
2018-05-27T23:06:41.708Z,99.80
2018-05-27T23:10:34.929Z,99.90
2018-05-27T23:14:28.046Z,99.90
2018-05-27T23:18:21.942Z,99.90
2018-05-27T23:22:15.075Z,99.90
2018-05-27T23:26:08.290Z,99.90
2018-05-27T23:30:01.419Z,99.90
2018-05-27T23:33:54.539Z,99.90
2018-05-27T23:37:47.754Z,99.90
2018-05-27T23:41:40.870Z,99.90
2018-05-27T23:45:34.002Z,99.90
2018-05-27T23:49:27.195Z,99.90
2018-05-27T23:53:20.347Z,99.90
2018-05-27T23:57:13.265Z,99.90
